createdAt,value
2017-03-29T18:12:57.632Z,21.09
2017-03-29T18:13:38.190Z,21.16
2017-03-29T18:14:18.763Z,21.22
2017-03-29T18:14:59.385Z,21.21
2017-03-29T18:15:39.956Z,21.16
2017-03-29T18:16:20.533Z,21.22
2017-03-29T18:17:01.105Z,21.21
2017-03-29T18:17:41.684Z,21.22
2017-03-29T18:18:22.267Z,21.16
2017-03-29T18:19:02.848Z,21.17
2017-03-29T18:19:43.426Z,21.22
2017-03-29T18:20:24.002Z,21.21
2017-03-29T18:21:04.581Z,21.21
2017-03-29T18:21:45.162Z,21.22
2017-03-29T18:22:25.738Z,21.19
2017-03-29T18:23:06.320Z,21.28
2017-03-29T18:23:46.904Z,21.17
2017-03-29T18:24:27.483Z,21.28
2017-03-29T18:25:08.067Z,21.21
2017-03-29T18:25:48.649Z,21.22
2017-03-29T18:26:29.227Z,21.16
2017-03-29T18:27:09.809Z,21.16
2017-03-29T18:27:50.395Z,21.17
2017-03-29T18:28:30.973Z,21.29
2017-03-29T18:29:11.551Z,21.31
2017-03-29T18:29:52.123Z,21.37
2017-03-29T18:30:32.703Z,21.32
2017-03-29T18:31:13.285Z,21.37
2017-03-29T18:31:53.855Z,21.28
2017-03-29T18:32:34.432Z,21.35
2017-03-29T18:33:15.028Z,21.37
2017-03-29T18:33:55.610Z,21.37
2017-03-29T18:34:36.201Z,21.38
2017-03-29T18:35:16.787Z,21.38
2017-03-29T18:35:57.368Z,21.37
2017-03-29T18:36:37.953Z,21.37
2017-03-29T18:37:18.536Z,21.35
2017-03-29T18:37:59.124Z,21.44
2017-03-29T18:38:39.694Z,21.44
2017-03-29T18:39:20.247Z,21.43
2017-03-29T18:40:00.815Z,21.49
2017-03-29T18:40:41.389Z,21.47
2017-03-29T18:41:21.967Z,21.37
2017-03-29T18:42:02.554Z,21.44
2017-03-29T18:42:43.134Z,21.43
2017-03-29T18:43:23.722Z,21.46
2017-03-29T18:44:04.308Z,21.46
2017-03-29T18:44:44.883Z,21.46
2017-03-29T18:45:25.469Z,21.52
2017-03-29T18:46:06.053Z,21.54
2017-03-29T18:46:46.645Z,21.43
2017-03-29T18:47:27.237Z,21.49
2017-03-29T18:48:07.811Z,21.43
2017-03-29T18:48:48.397Z,21.53
2017-03-29T18:49:28.974Z,21.5
2017-03-29T18:50:09.555Z,21.49
2017-03-29T18:50:50.124Z,21.47
2017-03-29T18:51:30.714Z,21.47
2017-03-29T18:52:11.321Z,21.58
2017-03-29T18:52:51.873Z,21.49
2017-03-29T18:53:32.458Z,21.47
2017-03-29T18:54:13.068Z,21.47
2017-03-29T18:54:53.650Z,21.56
2017-03-29T18:55:34.228Z,21.53
2017-03-29T18:56:14.800Z,21.5
2017-03-29T18:56:55.383Z,21.54
2017-03-29T18:57:35.968Z,21.56
2017-03-29T18:58:16.555Z,21.61
2017-03-29T18:58:57.140Z,21.54
2017-03-29T18:59:37.706Z,21.56
2017-03-29T19:00:18.299Z,21.59
2017-03-29T19:00:58.877Z,21.53
2017-03-29T19:01:39.455Z,21.56
2017-03-29T19:02:20.036Z,21.54
2017-03-29T19:03:00.621Z,21.58
2017-03-29T19:03:41.212Z,21.54
2017-03-29T19:04:21.797Z,21.54
2017-03-29T19:05:02.386Z,21.59
2017-03-29T19:05:42.966Z,21.61
2017-03-29T19:06:23.562Z,21.62
2017-03-29T19:07:04.147Z,21.61
2017-03-29T19:07:44.734Z,21.64
2017-03-29T19:08:25.319Z,21.54
2017-03-29T19:09:05.893Z,21.59
2017-03-29T19:09:46.478Z,21.59
2017-03-29T19:10:27.040Z,21.59
2017-03-29T19:11:07.625Z,21.62
2017-03-29T19:11:48.179Z,21.64
2017-03-29T19:12:28.747Z,21.59
2017-03-29T19:13:09.293Z,21.58
2017-03-29T19:13:49.858Z,21.58
2017-03-29T19:14:30.395Z,21.56
2017-03-29T19:15:10.978Z,21.61
2017-03-29T19:15:51.508Z,21.58
2017-03-29T19:16:32.120Z,21.64
2017-03-29T19:17:12.685Z,21.59
2017-03-29T19:17:53.278Z,21.59
2017-03-29T19:18:33.820Z,21.56
2017-03-29T19:19:14.370Z,21.52
